createdAt,value
2022-10-08T00:02:16.513Z,11.70
2022-10-08T00:07:19.342Z,11.50
2022-10-08T00:12:22.088Z,11.40
2022-10-08T00:17:26.178Z,11.40
2022-10-08T00:22:28.971Z,11.40
2022-10-08T00:27:33.452Z,11.90
2022-10-08T00:32:37.586Z,12.00
2022-10-08T00:37:40.327Z,12.20
2022-10-08T00:42:43.091Z,12.20
2022-10-08T00:47:48.897Z,12.40
2022-10-08T00:52:55.398Z,12.60
2022-10-08T00:58:02.075Z,12.80
2022-10-08T01:03:06.395Z,12.80
2022-10-08T01:08:16.978Z,12.90
2022-10-08T01:13:33.618Z,12.90
2022-10-08T01:18:47.437Z,12.90
2022-10-08T01:24:09.695Z,12.90
2022-10-08T01:29:18.740Z,12.80
2022-10-08T01:34:28.069Z,12.70
2022-10-08T01:39:35.305Z,12.80
2022-10-08T01:44:42.525Z,13.00
2022-10-08T01:49:51.405Z,13.00
2022-10-08T01:54:58.135Z,13.10
2022-10-08T02:00:06.953Z,13.20
2022-10-08T02:05:11.139Z,13.30
2022-10-08T02:10:16.808Z,13.30
2022-10-08T02:15:23.222Z,13.40
2022-10-08T02:20:31.879Z,13.40
2022-10-08T02:25:39.518Z,13.40
2022-10-08T02:30:49.608Z,13.40
2022-10-08T02:35:55.742Z,13.40
2022-10-08T02:41:01.967Z,13.50
2022-10-08T02:46:12.441Z,13.40
2022-10-08T02:51:18.587Z,13.40
2022-10-08T02:56:26.048Z,13.40
2022-10-08T03:01:37.749Z,13.40
2022-10-08T03:06:40.974Z,13.40
2022-10-08T03:11:44.283Z,13.40
2022-10-08T03:16:49.175Z,13.20
2022-10-08T03:21:55.723Z,13.20
2022-10-08T03:26:58.733Z,13.30
2022-10-08T03:32:02.830Z,13.50
2022-10-08T03:37:05.610Z,13.60
2022-10-08T03:42:08.340Z,13.40
2022-10-08T03:47:12.467Z,13.20
2022-10-08T03:52:15.254Z,13.00
2022-10-08T03:57:18.025Z,13.30
2022-10-08T04:02:22.088Z,13.40
2022-10-08T04:07:25.065Z,13.60
2022-10-08T04:12:28.081Z,13.80
2022-10-08T04:17:32.170Z,13.90
2022-10-08T04:22:35.162Z,13.80
2022-10-08T04:27:45.559Z,13.70
2022-10-08T04:32:49.836Z,13.70
2022-10-08T04:37:52.775Z,13.60
2022-10-08T04:42:55.574Z,13.40
2022-10-08T04:47:59.711Z,13.50
2022-10-08T04:53:02.520Z,13.50
2022-10-08T04:58:05.310Z,13.60
2022-10-08T05:03:09.443Z,13.70
2022-10-08T05:08:12.580Z,13.80
2022-10-08T05:13:15.373Z,13.80
2022-10-08T05:18:19.519Z,13.70
2022-10-08T05:23:22.534Z,13.60
2022-10-08T05:28:25.546Z,13.60
2022-10-08T05:33:29.710Z,13.70
2022-10-08T05:38:34.938Z,13.50
2022-10-08T05:43:38.129Z,13.60
2022-10-08T05:48:42.387Z,13.70
2022-10-08T05:53:47.571Z,13.80
2022-10-08T05:58:51.512Z,13.80
2022-10-08T06:03:57.304Z,13.90
2022-10-08T06:09:01.930Z,14.00
2022-10-08T06:14:06.004Z,14.10
2022-10-08T06:19:10.852Z,14.20
2022-10-08T06:24:13.924Z,14.40
2022-10-08T06:29:18.540Z,14.60
2022-10-08T06:34:23.031Z,14.60
2022-10-08T06:39:25.755Z,14.70
2022-10-08T06:44:28.480Z,14.80
2022-10-08T06:49:32.786Z,14.80
2022-10-08T06:54:35.515Z,14.80
2022-10-08T06:59:38.264Z,14.90
2022-10-08T07:04:42.357Z,14.80
2022-10-08T07:09:45.073Z,14.80
2022-10-08T07:14:47.977Z,14.70
2022-10-08T07:19:52.237Z,14.80
2022-10-08T07:24:54.949Z,14.90
2022-10-08T07:29:57.760Z,15.00
2022-10-08T07:35:01.832Z,15.10
2022-10-08T07:40:05.138Z,15.70
2022-10-08T07:45:08.977Z,16.70
2022-10-08T07:50:13.069Z,17.50
2022-10-08T07:55:16.030Z,18.30
2022-10-08T08:00:22.653Z,18.70
2022-10-08T08:05:29.314Z,18.90
2022-10-08T08:10:32.035Z,18.80
2022-10-08T08:15:34.953Z,19.80
2022-10-08T08:20:39.036Z,24.00
2022-10-08T08:25:41.754Z,25.10
2022-10-08T08:30:44.532Z,24.00
2022-10-08T08:35:53.274Z,23.50
2022-10-08T08:40:58.043Z,23.20
2022-10-08T08:46:02.720Z,22.50
2022-10-08T08:51:07.060Z,22.70
2022-10-08T08:56:16.804Z,23.20
2022-10-08T09:01:26.234Z,22.40
2022-10-08T09:06:32.027Z,23.30
2022-10-08T09:11:34.854Z,22.50
2022-10-08T09:16:38.277Z,24.90
2022-10-08T09:21:42.482Z,25.90
2022-10-08T09:26:45.208Z,27.70
2022-10-08T09:31:49.760Z,26.40
2022-10-08T09:36:55.495Z,25.70
2022-10-08T09:42:17.239Z,26.40
2022-10-08T09:47:21.818Z,26.90
2022-10-08T09:52:27.842Z,26.70
2022-10-08T09:57:31.744Z,27.20
2022-10-08T10:02:36.814Z,27.40
2022-10-08T10:07:43.351Z,25.20
2022-10-08T10:12:50.295Z,24.20
2022-10-08T10:17:56.602Z,22.90
2022-10-08T10:23:06.463Z,22.50
2022-10-08T10:33:37.950Z,19.20
2022-10-08T10:38:50.225Z,19.00
2022-10-08T10:43:55.828Z,19.20
2022-10-08T10:48:59.258Z,20.40
2022-10-08T10:54:14.980Z,22.40
2022-10-08T10:59:44.827Z,24.00
2022-10-08T11:04:58.153Z,25.40
2022-10-08T11:10:16.308Z,24.50
2022-10-08T11:15:28.675Z,22.70
2022-10-08T11:20:51.326Z,22.20
2022-10-08T11:31:32.419Z,23.10
2022-10-08T11:36:41.456Z,22.10
2022-10-08T11:41:53.387Z,22.10
2022-10-08T11:47:34.817Z,21.80
2022-10-08T11:52:38.261Z,22.00
2022-10-08T11:58:07.073Z,21.50
2022-10-08T12:03:08.635Z,20.70
2022-10-08T12:08:11.757Z,20.40
2022-10-08T12:13:31.588Z,20.30
2022-10-08T12:18:45.616Z,20.20
2022-10-08T12:23:48.639Z,20.40
2022-10-08T12:28:53.074Z,20.20
2022-10-08T12:34:01.549Z,20.10
2022-10-08T12:39:07.109Z,20.40
2022-10-08T12:44:26.858Z,23.10
2022-10-08T12:49:35.600Z,26.90
2022-10-08T12:54:40.834Z,31.50
2022-10-08T12:59:46.434Z,34.80
2022-10-08T13:04:49.156Z,30.60
2022-10-08T13:09:55.808Z,26.30
2022-10-08T13:15:08.748Z,23.20
2022-10-08T13:20:16.468Z,22.10
2022-10-08T13:25:40.839Z,24.00
2022-10-08T13:30:46.541Z,25.70
2022-10-08T13:35:54.110Z,27.00
2022-10-08T13:40:59.983Z,24.60
2022-10-08T13:46:04.064Z,22.10
2022-10-08T13:51:07.384Z,20.80
2022-10-08T13:56:10.217Z,20.00
2022-10-08T14:01:14.376Z,19.80
2022-10-08T14:06:17.243Z,23.40
2022-10-08T14:11:20.113Z,25.10
2022-10-08T14:16:24.258Z,25.60
2022-10-08T14:21:27.178Z,24.20
2022-10-08T14:26:30.449Z,21.60
2022-10-08T14:31:34.814Z,21.00
2022-10-08T14:36:40.781Z,19.90
2022-10-08T14:41:44.266Z,19.10
2022-10-08T14:46:48.790Z,18.70
2022-10-08T14:51:51.547Z,18.40
2022-10-08T14:56:54.547Z,18.40
2022-10-08T15:01:59.096Z,18.20
2022-10-08T15:07:01.875Z,17.80
2022-10-08T15:12:04.884Z,17.40
2022-10-08T15:17:09.080Z,17.30
2022-10-08T15:22:12.720Z,17.20
2022-10-08T15:27:20.438Z,16.80
2022-10-08T15:32:28.328Z,16.30
2022-10-08T15:37:33.123Z,16.20
2022-10-08T15:42:35.861Z,15.80
2022-10-08T15:47:39.947Z,15.30
2022-10-08T15:52:46.161Z,14.90
2022-10-08T15:57:49.317Z,14.60
2022-10-08T16:02:56.676Z,14.40
2022-10-08T16:07:59.432Z,14.50
2022-10-08T16:13:02.184Z,14.50
2022-10-08T16:18:06.413Z,14.50
2022-10-08T16:23:09.423Z,14.50
2022-10-08T16:28:12.255Z,14.50
2022-10-08T16:33:16.630Z,14.70
2022-10-08T16:38:19.362Z,14.70
2022-10-08T16:43:22.135Z,14.40
2022-10-08T16:48:26.192Z,14.40
2022-10-08T16:53:28.883Z,14.30
2022-10-08T16:58:31.633Z,14.30
2022-10-08T17:03:36.119Z,14.10
2022-10-08T17:08:39.828Z,13.90
2022-10-08T17:13:44.116Z,13.60
2022-10-08T17:18:50.747Z,13.40
2022-10-08T17:23:53.717Z,13.10
2022-10-08T17:28:57.197Z,12.90
2022-10-08T17:34:02.023Z,12.60
2022-10-08T17:39:09.083Z,12.60
2022-10-08T17:44:12.506Z,12.60
2022-10-08T17:49:17.964Z,12.60
2022-10-08T17:54:21.279Z,12.70
2022-10-08T17:59:24.001Z,12.50
2022-10-08T18:04:28.123Z,12.40
2022-10-08T18:09:30.825Z,12.10
2022-10-08T18:14:33.585Z,11.90
2022-10-08T18:19:37.690Z,11.90
2022-10-08T18:24:40.437Z,12.10
2022-10-08T18:29:43.893Z,12.20
2022-10-08T18:34:47.988Z,12.30
2022-10-08T18:39:50.746Z,12.40
2022-10-08T18:44:53.580Z,12.70
2022-10-08T18:49:58.234Z,12.70
2022-10-08T18:55:01.566Z,12.80
2022-10-08T19:00:04.902Z,12.70
2022-10-08T19:05:10.111Z,12.50
2022-10-08T19:10:12.832Z,12.60
2022-10-08T19:15:15.691Z,12.40
2022-10-08T19:20:19.782Z,12.20
2022-10-08T19:25:22.533Z,12.00
2022-10-08T19:30:28.354Z,12.00
2022-10-08T19:35:34.774Z,11.90
2022-10-08T19:40:37.511Z,11.50
2022-10-08T19:45:40.257Z,11.20
2022-10-08T19:50:44.420Z,11.20
2022-10-08T19:55:47.308Z,11.00
2022-10-08T20:00:58.935Z,10.80
2022-10-08T20:06:04.962Z,10.80
2022-10-08T20:11:09.851Z,10.60
2022-10-08T20:16:14.430Z,10.40
2022-10-08T20:21:19.244Z,10.50
2022-10-08T20:26:24.051Z,10.50
2022-10-08T20:31:29.198Z,10.50
2022-10-08T20:36:34.268Z,10.30
2022-10-08T20:41:37.009Z,10.30
2022-10-08T20:46:40.063Z,10.10
2022-10-08T20:51:44.809Z,9.70
2022-10-08T20:56:47.532Z,9.50
2022-10-08T21:01:51.203Z,9.40
2022-10-08T21:06:55.297Z,9.30
2022-10-08T21:11:58.071Z,9.20
2022-10-08T21:17:00.796Z,9.10
2022-10-08T21:22:07.639Z,8.90
2022-10-08T21:27:10.389Z,8.80
2022-10-08T21:32:13.494Z,8.80
2022-10-08T21:37:17.559Z,8.70
2022-10-08T21:42:20.429Z,8.80
2022-10-08T21:47:23.278Z,8.90
2022-10-08T21:52:27.345Z,8.90
2022-10-08T21:57:30.058Z,8.80
2022-10-08T22:02:32.854Z,8.70
2022-10-08T22:07:36.992Z,8.70
2022-10-08T22:12:39.748Z,8.70
2022-10-08T22:17:42.528Z,8.60
2022-10-08T22:22:46.868Z,8.50
2022-10-08T22:27:50.069Z,8.40
2022-10-08T22:32:52.863Z,8.30
2022-10-08T22:37:56.974Z,8.20
2022-10-08T22:42:59.709Z,8.00
2022-10-08T22:48:02.431Z,7.90
2022-10-08T22:53:06.582Z,8.00
2022-10-08T22:58:09.323Z,8.00
2022-10-08T23:03:12.281Z,7.90
2022-10-08T23:08:16.483Z,7.70
2022-10-08T23:13:19.211Z,7.60
2022-10-08T23:18:21.991Z,7.60
2022-10-08T23:23:26.066Z,7.50
2022-10-08T23:28:29.477Z,7.60
2022-10-08T23:33:32.233Z,7.60
2022-10-08T23:38:36.997Z,7.50
2022-10-08T23:43:41.967Z,7.40
2022-10-08T23:48:44.830Z,7.30
2022-10-08T23:53:49.754Z,7.20
2022-10-08T23:58:52.482Z,7.20
